Relevés horaires Weissfluhjoch (Suisse)


Relevés horaires à Weissfluhjoch - Samedi 13 Mai 2006
Heure UTC1 Température [°C] Vent [km/h] Hum. [%] Pres.4 [hPa] Visi. [Km] Nébu. [octa] Préc.5 [mm] Cond.
2m. Res. Ros. Dir.2 Vit. Moy. Raf.3
23:00 -1.7 -9 -1.9 NNO 33.3 33.3 44.4 99 700(-0.5/3h) -- -- -- --
22:00 -0.2 -4.6 -0.2 SSO 14.8 22.2 31.5 100 700(-0.5/3h) -- -- -- --
21:00 0.4 -4.5 0.4 SSO 18.5 18.5 20.4 100 700(-0.5/3h) -- -- -- --
20:00 1.3 -1 -1.5 SSO 7.4 11.1 16.7 82 700(-0.4/3h) -- -- -- --
19:00 1.7 -0.6 -2.0 S 7.4 13.0 20.4 76 700 -- -- -- --
18:00 1.8 -1 -1.1 S 9.3 -- -- 81 700 25 8/8 -- Nuages se développant
17:00 2.7 -0.3 -1.8 S 11.1 11.1 20.4 72 700(-1.2/3h) -- -- -- --
16:00 2.5 -0.2 -0.7 S 9.3 16.7 22.2 79 700(-0.8/3h) -- -- -- --
15:00 2.7 -0.3 -1.6 SSO 11.1 18.5 29.6 73 700(-0.7/3h) -- -- -- --
14:00 3.3 0.4 -2.6 SSO 11.1 18.5 29.6 65 700(-0.5/3h) -- -- -- --
13:00 2.9 -1.4 -3.5 S 18.5 18.5 29.6 63 700(-0.2/3h) -- -- -- --
12:00 2.7 -1.1 -3.7 S 14.8 18.5 31.5 63 700(0.2/3h) 30 8/8 0/0h
Nuages se dissipant
11:00 1.5 -2.5 -3.9 S 14.8 16.7 24.1 67 700(0.4/3h) -- -- -- --
10:00 0.9 -3.6 -4.2 SSE 16.7 16.7 24.1 69 700(0.6/3h) -- -- -- --
09:00 0.2 -4.1 -3.1 S 14.8 18.5 27.8 78 700(0.5/3h) -- -- -- --
08:00 -0.7 -4.9 -5.1 S 13.0 13.0 20.4 72 700(0.7/3h) -- -- -- --
07:00 -0.9 -4.7 -4.8 S 11.1 18.5 27.8 75 700(0.5/3h) -- -- -- --
06:00 -1.1 -4.4 -4.7 S 9.3 20.4 35.2 76 700(0.3/3h) 25 8/8 0/0h
Nuages se développant
05:00 -1.2 -6.5 -5.9 S 18.5 18.5 27.8 70 700(-0.1/3h) -- -- -- --
04:00 -1.0 -5.6 -4.5 S 14.8 16.7 29.6 77 700(-0.4/3h) -- -- -- --
03:00 -0.6 -5.1 -2.8 S 14.8 20.4 35.2 85 700(-0.6/3h) -- -- -- --
02:00 -0.4 -4.9 -3.3 SSE 14.8 18.5 31.5 81 700(-0.9/3h) -- -- -- --
01:00 -0.5 -5.3 -3.4 S 16.7 20.4 35.2 81 700(-0.9/3h) -- -- -- --
00:00 -0.3 -5.4 -3.3 S 18.5 20.4 35.2 80 700(-0.7/3h) -- -- 0/0h
--

1 Coordinated Universal Time. Actuellement il est 16:00 locale et 14:00 UTC.

2 Le vent souffle depuis la direction indiquée vers la direction oposée.

3 Les rafales max. sont disponible 40 min après l'heure du relevé.

4 Pour les stations d'altitude (plus de 600m) le géopotentiel du niveau le plus proche de la pression obligatoire est indiqué.

5 Les stations disposant d'un diffuseur peuvent indiquer "trace". Cela signifie que des précipitations ont touchés le sol mais que la quantité est inférieure à 0.1 mm.

Copyright

Les données affichées sur cette page sont la propriété exclusive de Météo Suisse.

Récapitulatif de la journée
Température [°C] Vent [km/h] Ensoleillement4 [h] Precipitations totale5 [mm] Pression [Hpa]
Min1 Max.2 Moy.3 Max. Min Max.
-1.4 3.6 18.2 44.4 6 h 0 min 12 700.0 700.0

1 Température minimale relevée entre 18:00 UTC la veille et 18:00 UTC le jour donné.

2 Température maximale relevée entre 06:00 UTC le jour donné et 06:00 UTC le lendemain.

3 Vent moyen de la journée basé sur les relevés horaires.

4 Ensoleillement en heures relevé entre 06:00 UTC la veille et 06:00 UTC le jour donné.

5 Précipitations totales tombées entre 06:00 UTC la jour donné et 06:00 UTC le lendemain.

Graphiques horaires